sensor_id;sensor_type;location;lat;lon;timestamp;pressure;altitude;pressure_sealevel;temperature;humidity
43553;BME280;29153;42.696;23.218;2022-08-21T06:46:39;93963.25;;;23.84;77.58
43553;BME280;29153;42.696;23.218;2022-08-21T06:49:07;93958.81;;;23.48;75.02
43553;BME280;29153;42.696;23.218;2022-08-21T06:53:55;93964.30;;;23.55;73.90
43553;BME280;29153;42.696;23.218;2022-08-21T06:56:23;93965.72;;;23.63;73.31
43553;BME280;29153;42.696;23.218;2022-08-21T07:41:20;93902.75;;;26.16;63.49
43553;BME280;29153;42.696;23.218;2022-08-21T07:43:47;93912.63;;;26.00;63.36
43553;BME280;29153;42.696;23.218;2022-08-21T07:46:15;93908.89;;;25.74;65.16
43553;BME280;29153;42.696;23.218;2022-08-21T07:48:43;93899.68;;;25.51;65.75
43553;BME280;29153;42.696;23.218;2022-08-21T07:52:17;93897.67;;;25.30;66.87
43553;BME280;29153;42.696;23.218;2022-08-21T08:08:04;93934.34;;;24.08;70.70
43553;BME280;29153;42.696;23.218;2022-08-21T08:10:31;93933.87;;;24.19;71.52
43553;BME280;29153;42.696;23.218;2022-08-21T08:12:59;93933.20;;;24.29;73.61
43553;BME280;29153;42.696;23.218;2022-08-21T08:15:28;93937.55;;;24.17;70.23
43553;BME280;29153;42.696;23.218;2022-08-21T08:17:56;93930.00;;;24.17;70.61
43553;BME280;29153;42.696;23.218;2022-08-21T08:20:25;93923.86;;;24.23;68.70
43553;BME280;29153;42.696;23.218;2022-08-21T08:22:54;93929.06;;;24.42;67.31
43553;BME280;29153;42.696;23.218;2022-08-21T08:25:22;93922.83;;;24.66;67.90
43553;BME280;29153;42.696;23.218;2022-08-21T08:27:50;93921.75;;;25.05;68.58
43553;BME280;29153;42.696;23.218;2022-08-21T08:30:19;93929.42;;;24.92;64.72
43553;BME280;29153;42.696;23.218;2022-08-21T08:32:49;93922.44;;;25.25;65.14
43553;BME280;29153;42.696;23.218;2022-08-21T08:35:16;93922.97;;;25.56;67.03
43553;BME280;29153;42.696;23.218;2022-08-21T08:37:44;93923.82;;;25.77;67.19
43553;BME280;29153;42.696;23.218;2022-08-21T08:40:25;93931.06;;;25.49;64.52
43553;BME280;29153;42.696;23.218;2022-08-21T08:42:51;93927.56;;;25.45;63.35
43553;BME280;29153;42.696;23.218;2022-08-21T08:45:21;93930.49;;;25.49;63.88
43553;BME280;29153;42.696;23.218;2022-08-21T08:48:03;93930.16;;;25.54;65.70
43553;BME280;29153;42.696;23.218;2022-08-21T08:50:49;93927.30;;;25.71;64.77
43553;BME280;29153;42.696;23.218;2022-08-21T08:53:23;93925.63;;;26.11;65.79
43553;BME280;29153;42.696;23.218;2022-08-21T08:55:56;93924.72;;;26.38;64.67
43553;BME280;29153;42.696;23.218;2022-08-21T08:58:27;93917.73;;;26.55;64.30
43553;BME280;29153;42.696;23.218;2022-08-21T09:00:54;93918.88;;;26.57;59.96
43553;BME280;29153;42.696;23.218;2022-08-21T09:03:24;93917.16;;;26.52;62.84
43553;BME280;29153;42.696;23.218;2022-08-21T09:11:52;93911.52;;;26.58;59.90
43553;BME280;29153;42.696;23.218;2022-08-21T09:25:21;93896.31;;;25.79;65.35
43553;BME280;29153;42.696;23.218;2022-08-21T09:27:50;93888.91;;;25.72;62.50
43553;BME280;29153;42.696;23.218;2022-08-21T09:30:19;93891.99;;;25.64;64.19
43553;BME280;29153;42.696;23.218;2022-08-21T09:32:47;93890.63;;;25.57;68.57
43553;BME280;29153;42.696;23.218;2022-08-21T09:35:20;93881.66;;;25.46;63.33
43553;BME280;29153;42.696;23.218;2022-08-21T09:37:56;93874.69;;;25.48;61.75
43553;BME280;29153;42.696;23.218;2022-08-21T09:40:32;93871.06;;;25.57;62.44
43553;BME280;29153;42.696;23.218;2022-08-21T09:43:05;93875.14;;;25.61;62.93
43553;BME280;29153;42.696;23.218;2022-08-21T09:45:33;93867.13;;;25.48;61.25
43553;BME280;29153;42.696;23.218;2022-08-21T09:48:19;93870.70;;;25.76;64.26
43553;BME280;29153;42.696;23.218;2022-08-21T09:50:48;93870.91;;;25.81;60.76
43553;BME280;29153;42.696;23.218;2022-08-21T09:56:14;93869.17;;;25.82;61.78
43553;BME280;29153;42.696;23.218;2022-08-21T09:59:11;93867.45;;;25.95;64.27
43553;BME280;29153;42.696;23.218;2022-08-21T10:01:25;93860.45;;;25.87;63.13
43553;BME280;29153;42.696;23.218;2022-08-21T10:07:19;93852.70;;;26.06;62.30
43553;BME280;29153;42.696;23.218;2022-08-21T10:09:45;93851.59;;;26.39;62.50
43553;BME280;29153;42.696;23.218;2022-08-21T10:12:22;93852.88;;;26.71;61.16
43553;BME280;29153;42.696;23.218;2022-08-21T10:15:13;93855.92;;;27.05;64.52
43553;BME280;29153;42.696;23.218;2022-08-21T10:20:35;93841.39;;;27.47;60.95
43553;BME280;29153;42.696;23.218;2022-08-21T10:30:56;93831.86;;;27.83;55.56
43553;BME280;29153;42.696;23.218;2022-08-21T10:38:54;93826.58;;;27.58;56.34
43553;BME280;29153;42.696;23.218;2022-08-21T10:41:32;93827.75;;;27.87;59.11
43553;BME280;29153;42.696;23.218;2022-08-21T10:46:58;93816.83;;;27.61;54.06
43553;BME280;29153;42.696;23.218;2022-08-21T10:49:32;93816.05;;;27.60;55.47
43553;BME280;29153;42.696;23.218;2022-08-21T10:55:06;93819.02;;;27.54;58.73
43553;BME280;29153;42.696;23.218;2022-08-21T10:57:54;93809.55;;;27.40;59.02
43553;BME280;29153;42.696;23.218;2022-08-21T11:00:16;93801.89;;;27.57;54.19
43553;BME280;29153;42.696;23.218;2022-08-21T11:02:47;93804.25;;;27.52;58.88
43553;BME280;29153;42.696;23.218;2022-08-21T11:10:39;93795.42;;;27.67;57.05
43553;BME280;29153;42.696;23.218;2022-08-21T11:13:08;93790.64;;;27.81;55.07
43553;BME280;29153;42.696;23.218;2022-08-21T11:15:48;93788.03;;;27.67;56.07
43553;BME280;29153;42.696;23.218;2022-08-21T11:18:19;93780.16;;;27.54;57.03
43553;BME280;29153;42.696;23.218;2022-08-21T11:20:51;93779.06;;;27.37;55.13
43553;BME280;29153;42.696;23.218;2022-08-21T11:23:22;93775.81;;;27.64;54.52
43553;BME280;29153;42.696;23.218;2022-08-21T11:25:53;93778.82;;;27.50;55.63
43553;BME280;29153;42.696;23.218;2022-08-21T11:28:28;93776.78;;;27.29;56.53
43553;BME280;29153;42.696;23.218;2022-08-21T11:36:29;93766.09;;;27.26;54.69
43553;BME280;29153;42.696;23.218;2022-08-21T11:39:16;93770.34;;;27.31;55.02
43553;BME280;29153;42.696;23.218;2022-08-21T11:41:57;93766.36;;;27.79;55.53
43553;BME280;29153;42.696;23.218;2022-08-21T11:47:33;93766.54;;;28.05;58.41
43553;BME280;29153;42.696;23.218;2022-08-21T11:50:14;93768.09;;;28.06;54.41
43553;BME280;29153;42.696;23.218;2022-08-21T11:52:44;93766.31;;;28.08;56.78
43553;BME280;29153;42.696;23.218;2022-08-21T11:55:22;93759.10;;;27.87;53.88
43553;BME280;29153;42.696;23.218;2022-08-21T11:58:05;93760.89;;;27.82;55.54
43553;BME280;29153;42.696;23.218;2022-08-21T12:00:42;93761.38;;;27.70;57.46
43553;BME280;29153;42.696;23.218;2022-08-21T12:03:13;93761.05;;;27.61;54.75
43553;BME280;29153;42.696;23.218;2022-08-21T12:05:44;93765.00;;;27.79;55.11
43553;BME280;29153;42.696;23.218;2022-08-21T12:08:13;93754.00;;;27.38;59.96
43553;BME280;29153;42.696;23.218;2022-08-21T12:10:47;93746.33;;;27.55;57.56
43553;BME280;29153;42.696;23.218;2022-08-21T12:13:28;93743.12;;;27.38;57.54
43553;BME280;29153;42.696;23.218;2022-08-21T12:16:10;93739.50;;;27.22;60.27
43553;BME280;29153;42.696;23.218;2022-08-21T12:18:33;93735.91;;;27.06;58.38
43553;BME280;29153;42.696;23.218;2022-08-21T12:24:04;93747.43;;;26.95;58.23
43553;BME280;29153;42.696;23.218;2022-08-21T12:26:52;93750.73;;;26.84;55.23
43553;BME280;29153;42.696;23.218;2022-08-21T12:29:39;93756.02;;;26.87;55.77
43553;BME280;29153;42.696;23.218;2022-08-21T12:32:28;93756.34;;;26.96;57.40
43553;BME280;29153;42.696;23.218;2022-08-21T12:34:40;93753.03;;;26.96;56.14
43553;BME280;29153;42.696;23.218;2022-08-21T12:39:46;93749.39;;;26.91;59.64
43553;BME280;29153;42.696;23.218;2022-08-21T12:42:22;93759.53;;;26.66;55.01
43553;BME280;29153;42.696;23.218;2022-08-21T12:44:56;93758.34;;;26.78;55.48
43553;BME280;29153;42.696;23.218;2022-08-21T12:48:42;93751.28;;;26.44;56.51
43553;BME280;29153;42.696;23.218;2022-08-21T12:53:28;93734.98;;;26.44;58.95
43553;BME280;29153;42.696;23.218;2022-08-21T12:55:55;93741.34;;;26.49;57.91
43553;BME280;29153;42.696;23.218;2022-08-21T12:58:28;93739.62;;;26.47;57.45
43553;BME280;29153;42.696;23.218;2022-08-21T13:01:04;93748.53;;;26.51;59.67
43553;BME280;29153;42.696;23.218;2022-08-21T13:03:36;93749.95;;;26.26;59.70
43553;BME280;29153;42.696;23.218;2022-08-21T13:06:06;93744.88;;;26.39;59.54
43553;BME280;29153;42.696;23.218;2022-08-21T13:08:36;93742.98;;;26.21;57.66
43553;BME280;29153;42.696;23.218;2022-08-21T13:11:05;93753.45;;;26.26;58.44
43553;BME280;29153;42.696;23.218;2022-08-21T13:13:34;93751.31;;;26.08;57.37
43553;BME280;29153;42.696;23.218;2022-08-21T13:16:06;93752.28;;;25.85;57.91
43553;BME280;29153;42.696;23.218;2022-08-21T13:18:36;93741.63;;;25.90;59.12
43553;BME280;29153;42.696;23.218;2022-08-21T13:21:12;93735.61;;;25.90;57.54
43553;BME280;29153;42.696;23.218;2022-08-21T13:23:41;93729.61;;;25.91;58.79
43553;BME280;29153;42.696;23.218;2022-08-21T13:26:20;93733.47;;;26.04;62.23
43553;BME280;29153;42.696;23.218;2022-08-21T15:28:40;93631.28;;;24.60;83.72
43553;BME280;29153;42.696;23.218;2022-08-21T15:31:08;93629.47;;;24.47;79.72
43553;BME280;29153;42.696;23.218;2022-08-21T15:33:35;93624.10;;;24.58;82.92
43553;BME280;29153;42.696;23.218;2022-08-21T15:36:03;93622.16;;;24.52;76.70
43553;BME280;29153;42.696;23.218;2022-08-21T15:38:31;93616.06;;;24.20;78.16
43553;BME280;29153;42.696;23.218;2022-08-21T15:40:58;93613.98;;;24.37;81.47
43553;BME280;29153;42.696;23.218;2022-08-21T15:43:33;93622.88;;;24.34;83.93
43553;BME280;29153;42.696;23.218;2022-08-21T15:46:00;93630.61;;;24.39;83.16
43553;BME280;29153;42.696;23.218;2022-08-21T15:48:29;93631.38;;;24.33;82.47
43553;BME280;29153;42.696;23.218;2022-08-21T15:50:56;93636.95;;;24.30;84.49
43553;BME280;29153;42.696;23.218;2022-08-21T15:53:24;93637.52;;;24.23;84.54
43553;BME280;29153;42.696;23.218;2022-08-21T15:55:52;93648.13;;;24.22;85.77
43553;BME280;29153;42.696;23.218;2022-08-21T15:58:21;93640.88;;;24.05;84.22
43553;BME280;29153;42.696;23.218;2022-08-21T16:00:49;93642.22;;;23.98;83.81
43553;BME280;29153;42.696;23.218;2022-08-21T16:03:18;93634.29;;;23.96;85.68
43553;BME280;29153;42.696;23.218;2022-08-21T16:05:48;93631.95;;;23.94;84.30
43553;BME280;29153;42.696;23.218;2022-08-21T16:08:17;93641.97;;;23.87;85.65
43553;BME280;29153;42.696;23.218;2022-08-21T16:10:45;93651.61;;;23.88;87.04
43553;BME280;29153;42.696;23.218;2022-08-21T16:13:48;93664.33;;;23.80;87.29
43553;BME280;29153;42.696;23.218;2022-08-21T16:15:49;93663.86;;;23.68;87.82
43553;BME280;29153;42.696;23.218;2022-08-21T16:18:18;93674.06;;;23.61;83.12
43553;BME280;29153;42.696;23.218;2022-08-21T16:20:46;93688.41;;;23.69;87.45
43553;BME280;29153;42.696;23.218;2022-08-21T16:23:14;93691.27;;;23.66;87.43
43553;BME280;29153;42.696;23.218;2022-08-21T16:25:41;93686.03;;;23.60;87.92
43553;BME280;29153;42.696;23.218;2022-08-21T16:28:13;93687.28;;;23.49;87.80
43553;BME280;29153;42.696;23.218;2022-08-21T16:30:40;93696.41;;;23.34;87.91
43553;BME280;29153;42.696;23.218;2022-08-21T16:33:11;93705.53;;;23.19;84.59
43553;BME280;29153;42.696;23.218;2022-08-21T16:35:38;93700.88;;;23.16;88.06
43553;BME280;29153;42.696;23.218;2022-08-21T16:38:06;93697.16;;;23.11;89.18
43553;BME280;29153;42.696;23.218;2022-08-21T16:40:35;93688.19;;;23.00;89.76
43553;BME280;29153;42.696;23.218;2022-08-21T16:43:02;93691.02;;;22.94;89.82
43553;BME280;29153;42.696;23.218;2022-08-21T16:45:30;93685.88;;;22.82;89.84
43553;BME280;29153;42.696;23.218;2022-08-21T16:47:58;93685.72;;;22.67;90.16
43553;BME280;29153;42.696;23.218;2022-08-21T16:50:25;93680.02;;;22.59;90.69
43553;BME280;29153;42.696;23.218;2022-08-21T16:52:54;93687.05;;;22.51;91.52
43553;BME280;29153;42.696;23.218;2022-08-21T16:55:21;93690.25;;;22.43;91.83
43553;BME280;29153;42.696;23.218;2022-08-21T16:57:49;93693.23;;;22.35;92.33
43553;BME280;29153;42.696;23.218;2022-08-21T17:00:16;93695.89;;;22.31;92.83
43553;BME280;29153;42.696;23.218;2022-08-21T17:02:47;93697.41;;;22.29;93.39
43553;BME280;29153;42.696;23.218;2022-08-21T17:05:15;93704.83;;;22.22;93.63
43553;BME280;29153;42.696;23.218;2022-08-21T17:07:44;93712.10;;;22.18;94.24
43553;BME280;29153;42.696;23.218;2022-08-21T17:10:14;93720.25;;;22.08;94.77
43553;BME280;29153;42.696;23.218;2022-08-21T17:12:44;93727.13;;;22.02;95.16
43553;BME280;29153;42.696;23.218;2022-08-21T17:15:28;93732.66;;;22.00;95.36
43553;BME280;29153;42.696;23.218;2022-08-21T17:17:51;93736.70;;;22.00;95.51
43553;BME280;29153;42.696;23.218;2022-08-21T17:20:19;93736.30;;;21.98;96.18
43553;BME280;29153;42.696;23.218;2022-08-21T17:22:47;93745.02;;;21.91;96.99
43553;BME280;29153;42.696;23.218;2022-08-21T17:25:15;93744.05;;;21.90;97.13
43553;BME280;29153;42.696;23.218;2022-08-21T17:27:43;93749.45;;;21.90;97.54
43553;BME280;29153;42.696;23.218;2022-08-21T17:30:12;93753.45;;;21.86;97.79
43553;BME280;29153;42.696;23.218;2022-08-21T17:32:41;93751.45;;;21.83;97.47
43553;BME280;29153;42.696;23.218;2022-08-21T17:35:10;93753.97;;;21.82;97.98
43553;BME280;29153;42.696;23.218;2022-08-21T17:37:38;93755.67;;;21.80;98.19
